Villa de Castro, Puerto Rico
Current Conditions -  °F | °C
As of 11:56 AM on Friday 21 Nov 2014 (Local Time) from TJSJ Reporting Station
Scattered Clouds Scattered Clouds  
Wind Chill: 30°   Ceiling: Unl
Heat Index: 34°   Visibility: 10mi
Dew Point: 23°   Wind: 16mph
Humidity: 67%   Direction: 60°ENE
Pressure: 30.02"   Gusts: NA
Location:  18.2361°N, 66.0369°W
Report Text: TJSJ 211556Z 06014KT 10SM SCT032 SCT047 30/23 A3002 RMK AO2 SLP164 T03000233
Loading
Personal Weather Stations






























Interactive Weather Map New forecast layout! Learn more

10-Day Weather Forecast

Advertisements
Track Severe Weather on mobile